createdAt,value
2018-07-25T00:03:08.713Z,24.10
2018-07-25T00:06:33.273Z,24.00
2018-07-25T00:09:57.811Z,24.00
2018-07-25T00:13:23.477Z,23.90
2018-07-25T00:16:48.120Z,23.90
2018-07-25T00:20:12.755Z,23.80
2018-07-25T00:23:37.205Z,23.80
2018-07-25T00:27:01.651Z,23.60
2018-07-25T00:30:26.105Z,23.60
2018-07-25T00:33:50.559Z,23.50
2018-07-25T00:37:14.971Z,23.40
2018-07-25T00:40:39.399Z,23.40
2018-07-25T00:44:03.809Z,23.30
2018-07-25T00:47:28.219Z,23.30
2018-07-25T00:50:52.740Z,23.20
2018-07-25T00:54:17.167Z,23.20
2018-07-25T00:57:41.589Z,23.20
2018-07-25T01:01:06.021Z,23.10
2018-07-25T01:04:30.411Z,23.10
2018-07-25T01:07:55.022Z,23.00
2018-07-25T01:11:19.591Z,23.00
2018-07-25T01:14:44.081Z,23.00
2018-07-25T01:18:08.892Z,23.00
2018-07-25T01:21:33.417Z,22.90
2018-07-25T01:24:57.988Z,22.90
2018-07-25T01:28:22.573Z,22.80
2018-07-25T01:31:47.087Z,22.80
2018-07-25T01:35:11.658Z,22.80
2018-07-25T01:38:36.175Z,22.70
2018-07-25T01:42:00.750Z,22.70
2018-07-25T01:45:25.235Z,22.60
2018-07-25T01:48:49.694Z,22.50
2018-07-25T01:52:14.220Z,22.50
2018-07-25T01:55:38.720Z,22.50
2018-07-25T01:59:03.320Z,22.40
2018-07-25T02:02:27.911Z,22.40
2018-07-25T02:05:52.498Z,22.30
2018-07-25T02:09:17.047Z,22.30
2018-07-25T02:12:41.661Z,22.20
2018-07-25T02:16:06.286Z,22.10
2018-07-25T02:19:30.902Z,22.10
2018-07-25T02:22:55.428Z,22.00
2018-07-25T02:26:19.919Z,22.00
2018-07-25T02:29:44.366Z,21.90
2018-07-25T02:33:08.880Z,21.90
2018-07-25T02:36:33.378Z,21.70
2018-07-25T02:39:57.926Z,21.60
2018-07-25T02:43:22.492Z,21.60
2018-07-25T02:46:47.035Z,21.50
2018-07-25T02:50:11.574Z,21.50
2018-07-25T02:53:36.147Z,21.40
2018-07-25T02:57:00.838Z,21.40
2018-07-25T03:00:25.302Z,21.30
2018-07-25T03:03:49.892Z,21.30
2018-07-25T03:07:14.447Z,21.20
2018-07-25T03:10:43.484Z,21.20
2018-07-25T03:14:07.966Z,21.10
2018-07-25T03:17:32.396Z,21.00
2018-07-25T03:20:57.172Z,21.00
2018-07-25T03:24:21.579Z,20.90
2018-07-25T03:27:46.055Z,20.90
2018-07-25T03:31:10.513Z,20.80
2018-07-25T03:34:34.916Z,20.80
2018-07-25T03:37:59.368Z,20.70
2018-07-25T03:41:23.797Z,20.70
2018-07-25T03:44:48.242Z,20.70
2018-07-25T03:48:12.953Z,20.70
2018-07-25T03:51:37.406Z,20.60
2018-07-25T03:55:02.015Z,20.60
2018-07-25T03:58:26.465Z,20.70
2018-07-25T04:01:50.944Z,20.70
2018-07-25T04:05:15.408Z,20.70
2018-07-25T04:08:39.824Z,20.70
2018-07-25T04:12:04.229Z,20.70
2018-07-25T04:15:28.655Z,20.80
2018-07-25T04:18:53.096Z,20.80
2018-07-25T04:22:17.557Z,20.80
2018-07-25T04:25:41.998Z,20.80
2018-07-25T04:29:06.466Z,20.80
2018-07-25T04:32:30.901Z,20.80
2018-07-25T04:35:55.366Z,20.90
2018-07-25T04:39:19.791Z,20.80
2018-07-25T04:42:44.255Z,20.90
2018-07-25T04:46:08.833Z,20.90
2018-07-25T04:49:33.402Z,21.00
2018-07-25T04:52:58.010Z,21.10
2018-07-25T04:56:22.575Z,21.20
2018-07-25T04:59:47.315Z,21.20
2018-07-25T05:03:11.839Z,21.30
2018-07-25T05:06:36.422Z,21.30
2018-07-25T05:10:00.939Z,21.40
2018-07-25T05:13:25.416Z,21.40
2018-07-25T05:20:14.276Z,21.60
2018-07-25T05:23:38.817Z,21.60
2018-07-25T05:27:03.356Z,21.70
2018-07-25T05:30:27.933Z,21.70
2018-07-25T05:33:52.514Z,21.80
2018-07-25T05:37:17.115Z,22.00
2018-07-25T05:40:41.631Z,22.00
2018-07-25T05:44:06.381Z,22.10
2018-07-25T05:47:30.924Z,22.20
2018-07-25T05:50:55.474Z,22.30
2018-07-25T05:54:20.169Z,22.40
2018-07-25T05:57:44.716Z,22.50
2018-07-25T06:01:09.591Z,22.60
2018-07-25T06:04:34.123Z,22.70
2018-07-25T06:07:58.612Z,22.80
2018-07-25T06:11:23.124Z,22.90
2018-07-25T06:14:47.662Z,23.00
2018-07-25T06:18:13.083Z,23.10
2018-07-25T06:25:01.738Z,23.30
2018-07-25T06:28:26.276Z,23.40
2018-07-25T06:31:50.837Z,23.50
2018-07-25T06:35:15.513Z,23.60
2018-07-25T06:38:40.043Z,23.60
2018-07-25T06:42:04.596Z,23.70
2018-07-25T06:45:29.119Z,23.80
2018-07-25T06:48:53.646Z,23.80
2018-07-25T06:55:42.434Z,24.10
2018-07-25T06:59:06.978Z,24.20
2018-07-25T07:02:31.429Z,24.30
2018-07-25T07:05:56.119Z,24.40
2018-07-25T07:09:20.612Z,24.50
2018-07-25T07:12:45.260Z,24.60
2018-07-25T07:16:09.836Z,24.70
2018-07-25T07:19:34.405Z,24.80
2018-07-25T07:22:58.962Z,25.00
2018-07-25T07:26:23.515Z,25.00
2018-07-25T07:29:48.097Z,25.10
2018-07-25T07:33:12.716Z,25.10
2018-07-25T07:36:37.283Z,25.20
2018-07-25T07:40:01.839Z,25.30
2018-07-25T07:43:26.496Z,25.40
2018-07-25T07:46:51.091Z,25.50
2018-07-25T07:50:15.664Z,25.60
2018-07-25T07:53:40.240Z,25.70
2018-07-25T07:57:04.829Z,25.80
2018-07-25T08:00:29.412Z,25.90
2018-07-25T08:03:54.162Z,26.00
2018-07-25T08:07:18.671Z,26.10
2018-07-25T08:10:43.338Z,26.20
2018-07-25T08:14:07.873Z,26.30
2018-07-25T08:17:32.440Z,26.40
2018-07-25T08:20:57.035Z,26.50
2018-07-25T08:24:21.551Z,26.60
2018-07-25T08:27:46.114Z,26.70
2018-07-25T08:31:10.718Z,26.80
2018-07-25T08:34:35.428Z,27.00
2018-07-25T08:37:59.937Z,27.10
2018-07-25T08:41:24.561Z,27.10
2018-07-25T08:44:49.144Z,27.40
2018-07-25T08:48:13.737Z,27.50
2018-07-25T08:51:38.308Z,27.60
2018-07-25T08:55:02.916Z,27.80
2018-07-25T08:58:27.861Z,27.90
2018-07-25T09:01:52.416Z,28.10
2018-07-25T09:05:17.152Z,28.40
2018-07-25T09:08:41.760Z,28.60
2018-07-25T09:12:06.412Z,28.70
2018-07-25T09:15:30.979Z,28.90
2018-07-25T09:18:55.735Z,29.20
2018-07-25T09:22:20.275Z,29.30
2018-07-25T09:25:44.808Z,29.40
2018-07-25T09:29:09.453Z,29.40
2018-07-25T09:32:33.943Z,29.50
2018-07-25T09:35:58.435Z,29.60
2018-07-25T09:39:22.963Z,29.90
2018-07-25T09:42:47.556Z,30.30
2018-07-25T09:46:12.072Z,30.60
2018-07-25T09:49:36.592Z,30.80
2018-07-25T09:53:01.227Z,31.00
2018-07-25T09:56:25.728Z,31.20
2018-07-25T09:59:50.389Z,31.70
2018-07-25T10:03:15.087Z,32.30
2018-07-25T10:06:39.682Z,32.80
2018-07-25T10:10:05.209Z,33.00
2018-07-25T10:13:29.791Z,33.40
2018-07-25T10:16:54.626Z,33.80
2018-07-25T10:20:19.158Z,34.10
2018-07-25T10:23:44.102Z,34.40
2018-07-25T10:27:08.701Z,34.90
2018-07-25T10:30:34.086Z,35.40
2018-07-25T10:33:59.465Z,35.70
2018-07-25T10:37:24.759Z,35.80
2018-07-25T10:40:49.471Z,36.40
2018-07-25T10:44:13.887Z,36.90
2018-07-25T10:47:38.360Z,37.30
2018-07-25T10:51:02.806Z,37.60
2018-07-25T10:54:27.223Z,38.10
2018-07-25T10:57:51.687Z,38.30
2018-07-25T11:01:16.160Z,38.50
2018-07-25T11:04:40.599Z,38.90
2018-07-25T11:08:05.075Z,39.50
2018-07-25T11:11:30.543Z,39.70
2018-07-25T11:14:54.972Z,40.20
2018-07-25T11:18:19.440Z,40.50
2018-07-25T11:21:43.858Z,41.30
2018-07-25T11:25:08.427Z,41.20
2018-07-25T11:28:32.891Z,41.30
2018-07-25T11:31:57.461Z,41.20
2018-07-25T11:35:21.877Z,41.50
2018-07-25T11:38:46.444Z,42.10
2018-07-25T11:42:10.932Z,42.10
2018-07-25T11:45:35.406Z,42.60
2018-07-25T11:48:59.898Z,42.70
2018-07-25T11:52:24.446Z,42.20
2018-07-25T11:55:49.089Z,42.70
2018-07-25T11:59:13.637Z,43.10
2018-07-25T12:02:38.187Z,43.70
2018-07-25T12:06:02.709Z,43.70
2018-07-25T12:09:27.198Z,43.90
2018-07-25T12:12:51.622Z,43.90
2018-07-25T12:16:16.131Z,44.20
2018-07-25T12:19:40.635Z,44.30
2018-07-25T12:23:05.084Z,44.60
2018-07-25T12:26:29.609Z,45.30
2018-07-25T12:29:54.039Z,45.40
2018-07-25T12:33:18.759Z,45.70
2018-07-25T12:36:43.310Z,45.80
2018-07-25T12:40:08.008Z,45.30
2018-07-25T12:43:32.464Z,44.60
2018-07-25T12:46:56.975Z,43.00
2018-07-25T12:50:21.418Z,41.60
2018-07-25T12:53:45.926Z,40.50
2018-07-25T12:57:10.490Z,40.30
2018-07-25T13:00:35.522Z,39.70
2018-07-25T13:04:00.016Z,38.80
2018-07-25T13:07:24.469Z,38.20
2018-07-25T13:10:48.977Z,38.00
2018-07-25T13:14:13.475Z,37.80
2018-07-25T13:17:37.969Z,37.60
2018-07-25T13:21:02.555Z,37.60
2018-07-25T13:24:27.012Z,38.20
2018-07-25T13:27:51.578Z,40.80
2018-07-25T13:31:16.107Z,42.30
2018-07-25T13:34:40.722Z,43.20
2018-07-25T13:38:05.201Z,42.80
2018-07-25T13:41:29.741Z,42.00
2018-07-25T13:44:54.203Z,41.60
2018-07-25T13:48:18.750Z,41.90
2018-07-25T13:51:43.261Z,40.80
2018-07-25T13:55:07.764Z,42.00
2018-07-25T13:58:32.325Z,44.00
2018-07-25T14:01:56.899Z,45.50
2018-07-25T14:05:23.536Z,46.60
2018-07-25T14:08:47.955Z,47.00
2018-07-25T14:12:17.706Z,47.60
2018-07-25T14:15:42.279Z,48.20
2018-07-25T14:19:07.512Z,48.50
2018-07-25T14:22:32.042Z,48.60
2018-07-25T14:25:56.627Z,48.70
2018-07-25T14:29:21.287Z,49.00
2018-07-25T14:32:45.864Z,49.30
2018-07-25T14:36:10.477Z,49.20
2018-07-25T14:39:35.017Z,49.00
2018-07-25T14:42:59.596Z,49.70
2018-07-25T14:46:24.284Z,49.80
2018-07-25T14:53:13.038Z,45.40
2018-07-25T14:56:37.637Z,43.50
2018-07-25T15:00:02.238Z,42.10
2018-07-25T15:03:26.776Z,40.80
2018-07-25T15:06:51.388Z,39.60
2018-07-25T15:10:15.914Z,38.60
2018-07-25T15:13:40.423Z,37.70
2018-07-25T15:17:05.067Z,36.90
2018-07-25T15:20:29.607Z,36.40
2018-07-25T15:23:59.840Z,35.80
2018-07-25T15:27:24.365Z,35.40
2018-07-25T15:34:12.993Z,34.90
2018-07-25T15:37:37.453Z,34.70
2018-07-25T15:41:01.973Z,34.30
2018-07-25T15:44:27.369Z,33.80
2018-07-25T15:47:51.841Z,33.00
2018-07-25T15:51:16.402Z,32.60
2018-07-25T15:54:41.015Z,31.90
2018-07-25T15:58:05.620Z,31.30
2018-07-25T16:01:30.447Z,30.70
2018-07-25T16:04:55.314Z,29.80
2018-07-25T16:08:20.002Z,28.60
2018-07-25T16:11:44.543Z,27.70
2018-07-25T16:15:09.134Z,27.00
2018-07-25T16:18:33.592Z,26.50
2018-07-25T16:21:58.234Z,26.30
2018-07-25T16:25:22.764Z,26.30
2018-07-25T16:28:47.313Z,26.40
2018-07-25T16:32:11.971Z,26.60
2018-07-25T16:35:36.526Z,27.20
2018-07-25T16:39:01.058Z,27.70
2018-07-25T16:42:25.615Z,28.20
2018-07-25T16:45:50.174Z,28.40
2018-07-25T16:49:14.766Z,28.70
2018-07-25T16:52:39.402Z,28.80
2018-07-25T16:56:03.989Z,28.80
2018-07-25T16:59:28.527Z,29.10
2018-07-25T17:02:53.099Z,29.10
2018-07-25T17:06:17.720Z,29.30
2018-07-25T17:09:42.327Z,29.30
2018-07-25T17:13:06.885Z,29.50
2018-07-25T17:16:31.427Z,29.30
2018-07-25T17:19:56.061Z,29.30
2018-07-25T17:23:21.339Z,29.30
2018-07-25T17:26:45.871Z,29.50
2018-07-25T17:30:10.477Z,29.50
2018-07-25T17:33:34.997Z,29.50
2018-07-25T17:36:59.533Z,29.50
2018-07-25T17:40:24.018Z,29.70
2018-07-25T17:43:48.485Z,29.80
2018-07-25T17:47:13.009Z,30.10
2018-07-25T17:50:37.540Z,30.20
2018-07-25T17:54:02.047Z,30.30
2018-07-25T17:57:26.612Z,30.20
2018-07-25T18:00:51.188Z,30.10
2018-07-25T18:04:15.797Z,30.00
2018-07-25T18:07:40.365Z,29.70
2018-07-25T18:11:05.166Z,29.70
2018-07-25T18:14:29.657Z,29.70
2018-07-25T18:17:54.251Z,29.60
2018-07-25T18:21:18.782Z,29.40
2018-07-25T18:24:43.387Z,29.10
2018-07-25T18:28:08.046Z,28.90
2018-07-25T18:31:32.721Z,28.80
2018-07-25T18:34:57.363Z,28.60
2018-07-25T18:38:22.241Z,28.40
2018-07-25T18:41:47.188Z,28.30
2018-07-25T18:45:11.988Z,28.20
2018-07-25T18:48:36.872Z,28.00
2018-07-25T18:52:01.555Z,27.90
2018-07-25T18:55:26.223Z,27.80
2018-07-25T18:58:51.336Z,27.70
2018-07-25T19:02:16.427Z,27.50
2018-07-25T19:05:41.172Z,27.50
2018-07-25T19:09:10.769Z,27.40
2018-07-25T19:12:36.065Z,27.30
2018-07-25T19:16:01.031Z,27.20
2018-07-25T19:19:25.775Z,27.10
2018-07-25T19:22:51.423Z,27.10
2018-07-25T19:26:16.380Z,27.00
2018-07-25T19:29:41.114Z,27.00
2018-07-25T19:33:05.738Z,26.90
2018-07-25T19:36:30.817Z,26.90
2018-07-25T19:39:55.603Z,26.90
2018-07-25T19:43:20.225Z,26.90
2018-07-25T19:46:45.159Z,26.80
2018-07-25T19:50:09.898Z,26.80
2018-07-25T19:53:34.850Z,26.70
2018-07-25T19:56:59.791Z,26.60
2018-07-25T20:00:24.689Z,26.50
2018-07-25T20:03:49.838Z,26.40
2018-07-25T20:07:14.790Z,26.30
2018-07-25T20:10:39.601Z,26.20
2018-07-25T20:14:10.597Z,26.10
2018-07-25T20:17:35.366Z,26.00
2018-07-25T20:20:59.973Z,26.00
2018-07-25T20:24:24.766Z,25.90
2018-07-25T20:27:49.339Z,25.80
2018-07-25T20:31:14.185Z,25.70
2018-07-25T20:34:39.021Z,25.60
2018-07-25T20:38:03.790Z,25.60
2018-07-25T20:41:28.760Z,25.60
2018-07-25T20:44:53.375Z,25.60
2018-07-25T20:48:18.217Z,25.50
2018-07-25T20:51:42.742Z,25.50
2018-07-25T20:55:07.442Z,25.50
2018-07-25T20:58:32.103Z,25.40
2018-07-25T21:01:56.847Z,25.40
2018-07-25T21:05:21.477Z,25.30
2018-07-25T21:08:46.058Z,25.10
2018-07-25T21:12:10.690Z,25.10
2018-07-25T21:15:35.251Z,25.00
2018-07-25T21:18:59.854Z,24.90
2018-07-25T21:22:24.442Z,24.80
2018-07-25T21:25:49.039Z,24.80
2018-07-25T21:29:13.603Z,24.80
2018-07-25T21:32:38.172Z,24.80
2018-07-25T21:36:02.832Z,24.80
2018-07-25T21:39:27.397Z,24.80
2018-07-25T21:42:52.035Z,24.80
2018-07-25T21:46:16.612Z,24.90
2018-07-25T21:49:41.222Z,24.90
2018-07-25T21:53:05.977Z,24.90
2018-07-25T21:56:30.519Z,24.90
2018-07-25T21:59:55.124Z,24.90
2018-07-25T22:03:20.014Z,24.80
2018-07-25T22:06:44.523Z,24.80
2018-07-25T22:10:09.566Z,24.80
2018-07-25T22:13:34.147Z,24.70
2018-07-25T22:16:58.659Z,24.60
2018-07-25T22:20:23.080Z,24.50
2018-07-25T22:23:47.498Z,24.50
2018-07-25T22:27:12.049Z,24.50
2018-07-25T22:34:01.022Z,24.40
2018-07-25T22:37:25.608Z,24.40
2018-07-25T22:40:50.099Z,24.30
2018-07-25T22:44:14.669Z,24.30
2018-07-25T22:47:39.195Z,24.20
2018-07-25T22:51:03.681Z,24.20
2018-07-25T22:54:28.154Z,24.10
2018-07-25T22:57:52.601Z,24.10
2018-07-25T23:01:17.037Z,24.10
2018-07-25T23:04:41.471Z,24.00
2018-07-25T23:08:06.131Z,24.00
2018-07-25T23:11:30.584Z,23.90
2018-07-25T23:14:55.055Z,23.90
2018-07-25T23:18:19.564Z,23.80
2018-07-25T23:21:44.040Z,23.80
2018-07-25T23:25:08.510Z,23.70
2018-07-25T23:28:32.929Z,23.60
2018-07-25T23:31:57.362Z,23.60
2018-07-25T23:35:22.160Z,23.50
2018-07-25T23:38:46.590Z,23.50
2018-07-25T23:42:11.090Z,23.50
2018-07-25T23:45:35.487Z,23.40
2018-07-25T23:48:59.926Z,23.40
2018-07-25T23:52:24.373Z,23.40
2018-07-25T23:55:48.779Z,23.40
2018-07-25T23:59:13.223Z,23.30
